Time;durP1;ratioP1;P1;durP2;ratioP2;P2;SDS_P1;SDS_P2;PMS_P1;PMS_P2;Temp;Humidity;BMP_temperature;BMP_pressure;BME280_temperature;BME280_humidity;BME280_pressure;Samples;Min_cycle;Max_cycle;Signal;HPM_P1;HPM_P2
2023/05/08 00:02:00;;;;;;;;;;;;;;;1.97;80.50;101848.45;102435;279;104579;-56
2023/05/08 00:04:35;;;;;;;;;;;;;;;1.95;80.56;101845.59;102380;279;113943;-55
2023/05/08 00:07:08;;;;;;;;;;;;;;;1.92;80.46;101849.33;102388;279;95532;-53
2023/05/08 00:09:44;;;;;;;;;;;;;;;1.90;80.41;101847.31;102408;279;97883;-53
2023/05/08 00:12:23;;;;;;;;;;;;;;;1.88;80.42;101849.78;102428;279;120497;-55
2023/05/08 00:14:58;;;;;;;;;;;;;;;1.85;80.35;101853.17;102443;279;105830;-55
2023/05/08 00:17:33;;;;;;;;;;;;;;;1.82;80.38;101854.63;102444;279;113041;-52
2023/05/08 00:20:08;;;;;;;;;;;;;;;1.77;80.40;101855.81;102425;279;92061;-52
2023/05/08 00:22:41;;;;;;;;;;;;;;;1.71;80.58;101855.45;102458;279;96734;-53
2023/05/08 00:25:31;;;;;;;;;;;;;;;1.67;80.44;101857.66;102424;279;120209;-52
2023/05/08 00:28:08;;;;;;;;;;;;;;;1.61;80.43;101864.61;102412;279;104616;-52
2023/05/08 00:30:48;;;;;;;;;;;;;;;1.54;80.60;101865.09;102416;279;113492;-54
2023/05/08 00:33:27;;;;;;;;;;;;;;;1.45;80.50;101863.38;102387;279;96200;-53
2023/05/08 00:36:06;;;;;;;;;;;;;;;1.41;80.57;101864.48;102453;279;97055;-54
2023/05/08 00:38:42;;;;;;;;;;;;;;;1.35;80.69;101865.39;102424;279;121713;-53
2023/05/08 00:41:21;;;;;;;;;;;;;;;1.34;80.73;101868.16;102404;279;105794;-53
2023/05/08 00:44:00;;;;;;;;;;;;;;;1.29;80.74;101868.42;102419;279;115925;-53
2023/05/08 00:46:34;;;;;;;;;;;;;;;1.25;80.77;101871.00;102383;279;94210;-54
2023/05/08 00:49:14;;;;;;;;;;;;;;;1.24;80.90;101871.22;102512;279;97963;-53
2023/05/08 00:51:49;;;;;;;;;;;;;;;1.26;80.99;101875.77;102506;279;120168;-54
2023/05/08 00:54:26;;;;;;;;;;;;;;;1.28;81.03;101876.70;102527;279;104365;-54
2023/05/08 00:57:03;;;;;;;;;;;;;;;1.28;81.03;101881.48;102490;279;113740;-52
2023/05/08 00:59:40;;;;;;;;;;;;;;;1.22;81.14;101883.78;102467;279;93829;-52
2023/05/08 01:02:12;;;;;;;;;;;;;;;1.19;81.06;101887.49;102518;279;98043;-53
2023/05/08 01:04:52;;;;;;;;;;;;;;;1.19;81.16;101890.88;102476;279;120808;-52
2023/05/08 01:07:32;;;;;;;;;;;;;;;1.14;81.19;101892.05;102502;279;103296;-53
2023/05/08 01:10:10;;;;;;;;;;;;;;;1.11;81.14;101893.66;102486;279;114025;-52
2023/05/08 01:12:53;;;;;;;;;;;;;;;1.05;81.23;101893.15;102455;279;95379;-55
2023/05/08 01:15:35;;;;;;;;;;;;;;;0.97;81.30;101899.31;102440;279;96561;-53
2023/05/08 01:18:18;;;;;;;;;;;;;;;0.91;81.21;101898.29;102494;279;120663;-52
2023/05/08 01:21:01;;;;;;;;;;;;;;;0.86;81.34;101902.63;102500;268;104526;-53
2023/05/08 01:23:54;;;;;;;;;;;;;;;0.84;81.43;101902.59;102470;279;114849;-53
2023/05/08 01:27:01;;;;;;;;;;;;;;;0.88;81.48;101902.39;102495;279;96382;-52
2023/05/08 01:30:03;;;;;;;;;;;;;;;0.88;81.56;101901.27;102481;279;98100;-53
2023/05/08 01:32:47;;;;;;;;;;;;;;;0.91;81.65;101907.84;102500;279;119825;-52
2023/05/08 01:35:30;;;;;;;;;;;;;;;0.92;81.67;101904.58;102467;279;106223;-51
2023/05/08 01:38:08;;;;;;;;;;;;;;;0.93;81.64;101906.34;102501;279;114585;-54
2023/05/08 01:40:49;;;;;;;;;;;;;;;0.92;81.72;101909.41;102480;279;95341;-54
2023/05/08 01:43:30;;;;;;;;;;;;;;;0.89;81.83;101910.95;102483;279;96746;-54
2023/05/08 01:46:06;;;;;;;;;;;;;;;0.87;81.77;101913.36;102487;279;118503;-53
2023/05/08 01:48:49;;;;;;;;;;;;;;;0.84;81.64;101916.80;102510;279;105360;-53
2023/05/08 01:51:28;;;;;;;;;;;;;;;0.82;81.73;101917.09;102452;279;114402;-52
2023/05/08 01:54:05;;;;;;;;;;;;;;;0.79;81.71;101918.50;102515;279;93440;-51
2023/05/08 01:56:48;;;;;;;;;;;;;;;0.71;81.66;101916.64;102392;279;98141;-54
2023/05/08 01:59:27;;;;;;;;;;;;;;;0.66;81.70;101918.56;102455;279;121062;-54
2023/05/08 02:02:06;;;;;;;;;;;;;;;0.57;81.76;101920.11;102502;279;105314;-53
2023/05/08 02:04:43;;;;;;;;;;;;;;;0.48;81.72;101919.56;102428;279;114366;-53
2023/05/08 02:07:19;;;;;;;;;;;;;;;0.49;81.82;101919.36;102446;279;95234;-53
2023/05/08 02:09:52;;;;;;;;;;;;;;;0.44;81.94;101921.38;102474;279;97184;-53
2023/05/08 02:12:31;;;;;;;;;;;;;;;0.43;81.95;101921.48;102529;279;120778;-54
2023/05/08 02:15:08;;;;;;;;;;;;;;;0.42;82.01;101922.42;102494;279;105526;-54
2023/05/08 02:17:43;;;;;;;;;;;;;;;0.43;82.08;101929.29;102412;279;114112;-51
2023/05/08 02:20:16;;;;;;;;;;;;;;;0.43;82.17;101925.69;102491;279;96189;-52
2023/05/08 02:22:51;;;;;;;;;;;;;;;0.45;82.12;101923.15;102513;279;96147;-54
2023/05/08 02:25:25;;;;;;;;;;;;;;;0.42;82.19;101925.80;102489;279;121185;-52
2023/05/08 02:28:03;;;;;;;;;;;;;;;0.32;82.26;101926.55;102486;279;105569;-54
2023/05/08 02:30:40;;;;;;;;;;;;;;;0.28;82.32;101922.85;102479;279;114225;-55
2023/05/08 02:33:19;;;;;;;;;;;;;;;0.25;82.16;101921.82;102480;279;93204;-54
2023/05/08 02:35:54;;;;;;;;;;;;;;;0.18;82.28;101923.23;102543;279;96163;-54
2023/05/08 02:38:29;;;;;;;;;;;;;;;0.15;82.29;101924.52;102453;279;119186;-54
2023/05/08 02:41:06;;;;;;;;;;;;;;;0.11;82.51;101926.16;102462;279;105872;-52
2023/05/08 02:43:43;;;;;;;;;;;;;;;0.10;82.56;101928.66;102371;279;114317;-52
2023/05/08 02:46:20;;;;;;;;;;;;;;;0.08;82.57;101923.15;102495;279;95159;-51
2023/05/08 02:49:04;;;;;;;;;;;;;;;0.11;82.65;101924.17;102506;279;96546;-53
2023/05/08 02:51:49;;;;;;;;;;;;;;;0.17;82.65;101923.48;102495;279;120689;-53
2023/05/08 02:54:32;;;;;;;;;;;;;;;0.21;82.71;101924.88;102450;279;105201;-52
2023/05/08 02:57:09;;;;;;;;;;;;;;;0.26;82.70;101925.66;102494;279;115262;-54
2023/05/08 02:59:46;;;;;;;;;;;;;;;0.26;82.68;101922.95;102492;279;95773;-53
2023/05/08 03:02:26;;;;;;;;;;;;;;;0.25;82.79;101926.06;102498;279;97945;-55
2023/05/08 03:05:04;;;;;;;;;;;;;;;0.29;82.85;101925.27;102372;279;122586;-55
2023/05/08 03:07:41;;;;;;;;;;;;;;;0.29;82.67;101927.96;102501;279;105162;-54
2023/05/08 03:10:15;;;;;;;;;;;;;;;0.31;82.79;101929.42;102501;279;115207;-54
2023/05/08 03:12:54;;;;;;;;;;;;;;;0.33;82.78;101932.86;102519;279;94110;-54
2023/05/08 03:15:30;;;;;;;;;;;;;;;0.38;82.82;101937.18;102495;279;97503;-54
2023/05/08 03:18:08;;;;;;;;;;;;;;;0.40;82.74;101938.83;102482;279;120587;-52
2023/05/08 03:20:50;;;;;;;;;;;;;;;0.32;82.86;101943.37;102473;279;105304;-55
2023/05/08 03:23:28;;;;;;;;;;;;;;;0.29;82.87;101947.08;102446;279;114575;-55
2023/05/08 03:26:04;;;;;;;;;;;;;;;0.28;82.97;101947.83;101922;280;96924;-52
2023/05/08 03:28:42;;;;;;;;;;;;;;;0.30;83.10;101951.25;102490;279;97148;-52
2023/05/08 03:31:20;;;;;;;;;;;;;;;0.38;83.09;101951.17;102499;279;120238;-52
2023/05/08 03:33:57;;;;;;;;;;;;;;;0.41;83.11;101950.43;102514;279;105804;-52
2023/05/08 03:36:33;;;;;;;;;;;;;;;0.47;83.23;101951.88;102420;279;115193;-53
2023/05/08 03:39:10;;;;;;;;;;;;;;;0.83;83.45;101952.50;102441;279;96287;-51
2023/05/08 03:41:48;;;;;;;;;;;;;;;1.90;83.20;101953.19;102455;279;98185;-52
2023/05/08 03:44:23;;;;;;;;;;;;;;;3.19;82.36;101946.08;102476;279;120148;-52
2023/05/08 03:46:58;;;;;;;;;;;;;;;4.42;80.98;101944.27;102525;279;105679;-54
2023/05/08 03:49:33;;;;;;;;;;;;;;;5.58;79.76;101944.47;102474;279;112939;-55
2023/05/08 03:52:08;;;;;;;;;;;;;;;6.67;78.97;101940.13;102381;279;93742;-55
2023/05/08 03:54:45;;;;;;;;;;;;;;;7.97;78.03;101933.56;102474;279;96256;-55
2023/05/08 03:57:20;;;;;;;;;;;;;;;9.00;76.78;101929.91;102440;279;122182;-52
2023/05/08 04:00:03;;;;;;;;;;;;;;;9.90;75.16;101934.42;102417;279;105436;-54
2023/05/08 04:02:49;;;;;;;;;;;;;;;10.66;73.94;101935.23;102449;279;116262;-53
2023/05/08 04:05:32;;;;;;;;;;;;;;;11.43;72.53;101933.85;102403;279;93980;-53
2023/05/08 04:08:17;;;;;;;;;;;;;;;11.07;71.75;101936.13;102429;279;97682;-53
2023/05/08 04:10:59;;;;;;;;;;;;;;;9.66;71.63;101944.29;102443;279;120135;-55
2023/05/08 04:13:37;;;;;;;;;;;;;;;8.28;72.34;101946.58;102424;279;105495;-54
2023/05/08 04:16:17;;;;;;;;;;;;;;;7.56;72.52;101952.05;102387;279;114529;-54
2023/05/08 04:18:59;;;;;;;;;;;;;;;7.21;72.28;101954.54;102387;279;93273;-53
2023/05/08 04:21:34;;;;;;;;;;;;;;;7.10;72.19;101959.73;102419;279;97179;-54
2023/05/08 04:24:08;;;;;;;;;;;;;;;7.12;71.87;101963.75;102491;279;120805;-53
2023/05/08 04:26:46;;;;;;;;;;;;;;;6.82;71.82;101971.45;102487;279;106008;-52
2023/05/08 04:29:21;;;;;;;;;;;;;;;6.54;72.25;101974.33;102446;279;115306;-52
2023/05/08 04:32:01;;;;;;;;;;;;;;;6.36;72.72;101978.27;102481;279;93741;-55
2023/05/08 04:34:37;;;;;;;;;;;;;;;6.16;73.24;101986.38;102526;279;97747;-55
2023/05/08 04:37:24;;;;;;;;;;;;;;;6.12;73.52;101987.05;102505;279;120864;-55
2023/05/08 04:39:57;;;;;;;;;;;;;;;6.10;73.99;101987.57;102510;279;105724;-55
2023/05/08 04:42:35;;;;;;;;;;;;;;;6.36;74.36;101983.98;102470;279;113882;-55
2023/05/08 04:45:09;;;;;;;;;;;;;;;7.44;74.93;101978.00;102462;279;92772;-56
2023/05/08 04:47:42;;;;;;;;;;;;;;;10.07;74.66;101973.54;102498;279;97582;-54
2023/05/08 04:50:19;;;;;;;;;;;;;;;12.82;72.81;101967.20;102408;279;119905;-52
2023/05/08 04:52:56;;;;;;;;;;;;;;;14.87;70.32;101966.95;102461;279;104128;-54
2023/05/08 04:55:31;;;;;;;;;;;;;;;16.58;69.02;101966.77;102458;279;114915;-54
2023/05/08 04:58:08;;;;;;;;;;;;;;;18.03;67.02;101969.27;102427;279;94565;-55
2023/05/08 05:00:40;;;;;;;;;;;;;;;19.17;64.57;101966.05;102380;279;98375;-55
2023/05/08 05:03:16;;;;;;;;;;;;;;;20.03;62.76;101969.29;102434;279;119623;-55
2023/05/08 05:05:57;;;;;;;;;;;;;;;20.85;61.00;101970.40;102497;279;105649;-55
2023/05/08 05:08:36;;;;;;;;;;;;;;;21.51;58.77;101976.55;102483;279;113441;-55
2023/05/08 05:11:09;;;;;;;;;;;;;;;21.94;57.22;101973.70;102447;279;93540;-53
2023/05/08 05:13:42;;;;;;;;;;;;;;;22.41;54.65;101976.64;102485;279;97405;-54
2023/05/08 05:16:16;;;;;;;;;;;;;;;22.83;53.03;101976.95;102486;279;120808;-56
2023/05/08 05:18:52;;;;;;;;;;;;;;;23.32;51.30;101978.91;102453;279;104999;-55
2023/05/08 05:21:26;;;;;;;;;;;;;;;23.79;49.49;101975.73;102468;279;113559;-55
2023/05/08 05:24:04;;;;;;;;;;;;;;;24.17;47.79;101975.70;102500;279;94944;-54
2023/05/08 05:26:38;;;;;;;;;;;;;;;24.47;46.75;101979.41;102461;279;97678;-57
2023/05/08 05:29:12;;;;;;;;;;;;;;;24.74;45.78;101980.77;102443;279;121505;-56
2023/05/08 05:31:50;;;;;;;;;;;;;;;25.25;43.78;101981.45;102515;279;104749;-56
2023/05/08 05:34:27;;;;;;;;;;;;;;;25.52;43.24;101980.69;102417;279;114438;-57
2023/05/08 05:37:02;;;;;;;;;;;;;;;26.06;41.88;101982.45;102478;279;94593;-57
2023/05/08 05:39:37;;;;;;;;;;;;;;;26.45;40.89;101980.32;102463;279;97070;-56
2023/05/08 05:42:14;;;;;;;;;;;;;;;26.95;40.40;101981.55;102469;279;120995;-56
2023/05/08 05:44:55;;;;;;;;;;;;;;;27.12;38.89;101984.17;102456;279;106134;-56
2023/05/08 05:47:30;;;;;;;;;;;;;;;27.02;37.05;101983.45;102528;279;114507;-55
2023/05/08 05:50:04;;;;;;;;;;;;;;;27.09;37.48;101983.03;102479;279;94258;-56
2023/05/08 05:52:37;;;;;;;;;;;;;;;27.57;36.82;101978.90;102538;279;97760;-54
2023/05/08 05:55:10;;;;;;;;;;;;;;;27.59;36.21;101980.25;102465;279;120821;-54
2023/05/08 05:57:43;;;;;;;;;;;;;;;27.83;35.64;101982.29;102466;279;105967;-55
2023/05/08 06:00:20;;;;;;;;;;;;;;;28.19;34.54;101980.75;102458;279;113455;-55
2023/05/08 06:03:01;;;;;;;;;;;;;;;28.13;34.31;101981.88;102469;279;93456;-56
2023/05/08 06:05:37;;;;;;;;;;;;;;;27.75;32.20;101985.04;102476;279;97725;-55
2023/05/08 06:08:10;;;;;;;;;;;;;;;27.11;32.77;101989.66;102455;279;121948;-55
2023/05/08 06:10:46;;;;;;;;;;;;;;;27.82;32.26;101983.60;102486;279;105842;-54
2023/05/08 06:13:21;;;;;;;;;;;;;;;27.77;31.66;101987.79;102484;279;114889;-55
2023/05/08 06:15:56;;;;;;;;;;;;;;;27.88;32.14;101987.66;102475;279;94780;-54
2023/05/08 06:18:36;;;;;;;;;;;;;;;27.71;29.90;101990.52;102486;279;97569;-54
2023/05/08 06:21:08;;;;;;;;;;;;;;;27.47;30.92;101989.69;102497;279;120858;-57
2023/05/08 06:23:46;;;;;;;;;;;;;;;28.14;30.43;101988.98;102497;279;105438;-57
2023/05/08 06:26:19;;;;;;;;;;;;;;;27.98;29.94;101990.19;102477;279;114902;-54
2023/05/08 06:28:54;;;;;;;;;;;;;;;28.09;29.38;101988.33;102504;279;93818;-55
2023/05/08 06:31:30;;;;;;;;;;;;;;;28.45;29.40;101985.31;102480;279;96893;-57
2023/05/08 06:34:03;;;;;;;;;;;;;;;28.70;28.70;101985.10;102450;279;120954;-57
2023/05/08 06:36:42;;;;;;;;;;;;;;;29.09;28.32;101982.37;102491;279;104444;-54
2023/05/08 06:39:20;;;;;;;;;;;;;;;29.49;27.43;101976.35;102428;279;115024;-54
2023/05/08 06:42:00;;;;;;;;;;;;;;;29.30;27.62;101978.83;102438;279;94624;-55
2023/05/08 06:44:49;;;;;;;;;;;;;;;28.83;27.59;101976.60;102421;279;97269;-59
2023/05/08 06:47:24;;;;;;;;;;;;;;;28.93;27.72;101980.59;102494;279;120610;-62
2023/05/08 06:50:02;;;;;;;;;;;;;;;29.28;27.47;101981.66;102489;279;105671;-54
2023/05/08 06:52:38;;;;;;;;;;;;;;;29.54;26.84;101979.08;102521;279;114399;-57
2023/05/08 06:55:17;;;;;;;;;;;;;;;29.68;26.89;101980.26;102498;279;93614;-55
2023/05/08 06:57:53;;;;;;;;;;;;;;;29.63;26.18;101982.27;102479;279;95691;-56
2023/05/08 07:00:34;;;;;;;;;;;;;;;29.21;25.59;101984.30;102491;279;121650;-55
2023/05/08 07:03:07;;;;;;;;;;;;;;;29.37;25.76;101978.01;102483;279;104786;-54
2023/05/08 07:05:48;;;;;;;;;;;;;;;29.37;25.52;101977.77;102475;279;114062;-57
2023/05/08 07:08:24;;;;;;;;;;;;;;;28.96;25.61;101975.93;102502;279;93828;-56
2023/05/08 07:10:58;;;;;;;;;;;;;;;29.18;25.37;101978.62;102527;279;95708;-56
2023/05/08 07:13:34;;;;;;;;;;;;;;;29.30;24.84;101978.05;102481;279;121169;-55
2023/05/08 07:16:15;;;;;;;;;;;;;;;29.33;25.02;101979.67;102528;279;105774;-56
2023/05/08 07:18:49;;;;;;;;;;;;;;;29.41;24.93;101980.02;102485;279;114153;-56
2023/05/08 07:21:29;;;;;;;;;;;;;;;29.53;24.95;101979.41;102427;279;94422;-56
2023/05/08 07:24:06;;;;;;;;;;;;;;;29.26;25.31;101985.98;102467;279;97947;-56
2023/05/08 07:26:40;;;;;;;;;;;;;;;29.15;25.44;101983.56;102509;279;120949;-55
2023/05/08 07:29:14;;;;;;;;;;;;;;;29.18;25.40;101985.69;102447;279;105576;-54
2023/05/08 07:31:50;;;;;;;;;;;;;;;29.31;24.71;101987.29;102475;279;113815;-55
2023/05/08 07:34:26;;;;;;;;;;;;;;;29.34;24.96;101992.15;102474;279;94814;-54
2023/05/08 07:37:04;;;;;;;;;;;;;;;29.51;24.67;101988.83;102487;279;96977;-55
2023/05/08 07:39:43;;;;;;;;;;;;;;;29.02;24.70;101984.79;102318;279;122032;-55
2023/05/08 07:42:20;;;;;;;;;;;;;;;28.78;24.48;101987.05;102487;279;105479;-57
2023/05/08 07:44:57;;;;;;;;;;;;;;;28.66;23.88;101982.83;102445;279;113378;-58
2023/05/08 07:47:32;;;;;;;;;;;;;;;28.48;24.03;101985.66;102452;279;94564;-55
2023/05/08 07:50:08;;;;;;;;;;;;;;;27.87;24.58;101987.16;102400;279;98318;-54
2023/05/08 07:52:45;;;;;;;;;;;;;;;27.64;24.93;101983.55;102440;279;119588;-56
2023/05/08 07:55:20;;;;;;;;;;;;;;;27.47;24.88;101982.64;102462;279;105675;-55
2023/05/08 07:57:56;;;;;;;;;;;;;;;27.68;24.81;101986.22;102412;279;113875;-56
2023/05/08 08:00:30;;;;;;;;;;;;;;;27.82;25.06;101983.34;102457;279;93930;-55
2023/05/08 08:03:07;;;;;;;;;;;;;;;28.13;24.67;101977.86;102359;279;96241;-55
2023/05/08 08:05:40;;;;;;;;;;;;;;;28.28;24.07;101982.26;102466;279;120376;-54
2023/05/08 08:08:14;;;;;;;;;;;;;;;27.79;23.82;101986.30;102416;279;104239;-54
2023/05/08 08:10:47;;;;;;;;;;;;;;;27.58;24.26;101985.02;102440;279;115469;-54
2023/05/08 08:13:19;;;;;;;;;;;;;;;28.13;24.01;101985.09;102389;279;94974;-55
2023/05/08 08:15:56;;;;;;;;;;;;;;;28.36;23.57;101981.52;102389;279;97259;-55
2023/05/08 08:18:36;;;;;;;;;;;;;;;28.09;23.34;101980.60;102400;279;121603;-57
2023/05/08 08:21:16;;;;;;;;;;;;;;;27.22;23.53;101987.95;102362;279;106032;-54
2023/05/08 08:23:51;;;;;;;;;;;;;;;26.78;23.30;101981.61;102413;279;115160;-55
2023/05/08 08:26:26;;;;;;;;;;;;;;;27.09;23.62;101984.81;102395;279;95285;-55
2023/05/08 08:29:00;;;;;;;;;;;;;;;27.39;23.78;101975.93;102401;279;97748;-54
2023/05/08 08:31:37;;;;;;;;;;;;;;;27.42;24.63;101975.52;102388;279;120879;-55
2023/05/08 08:34:13;;;;;;;;;;;;;;;27.34;24.89;101971.65;102405;279;104853;-52
2023/05/08 08:36:52;;;;;;;;;;;;;;;27.27;24.84;101969.90;102330;279;116561;-57
2023/05/08 08:39:28;;;;;;;;;;;;;;;27.31;23.67;101968.06;102384;279;94001;-57
2023/05/08 08:42:03;;;;;;;;;;;;;;;26.89;23.49;101969.17;102459;279;98438;-57
2023/05/08 08:44:37;;;;;;;;;;;;;;;26.55;24.05;101970.52;102382;279;121311;-57
2023/05/08 08:47:12;;;;;;;;;;;;;;;26.54;23.92;101967.91;102401;279;105312;-54
2023/05/08 08:49:50;;;;;;;;;;;;;;;26.40;23.53;101961.67;102366;279;113582;-54
2023/05/08 08:52:27;;;;;;;;;;;;;;;26.41;24.58;101961.52;102395;279;94737;-57
2023/05/08 08:55:08;;;;;;;;;;;;;;;26.37;24.39;101962.69;102413;279;98155;-56
2023/05/08 08:57:55;;;;;;;;;;;;;;;25.63;24.54;101963.87;102347;279;120486;-54
2023/05/08 09:00:31;;;;;;;;;;;;;;;25.33;24.63;101958.02;102379;279;106333;-55
2023/05/08 09:03:08;;;;;;;;;;;;;;;25.27;24.60;101954.59;102393;279;113481;-52
2023/05/08 09:05:48;;;;;;;;;;;;;;;25.55;24.96;101958.27;102387;279;95043;-55
2023/05/08 09:08:25;;;;;;;;;;;;;;;25.67;24.49;101954.00;102448;279;97362;-55
2023/05/08 09:11:02;;;;;;;;;;;;;;;25.44;24.46;101954.67;102465;279;121011;-58
2023/05/08 09:13:38;;;;;;;;;;;;;;;24.95;24.45;101959.81;102456;279;106506;-56
2023/05/08 09:16:12;;;;;;;;;;;;;;;23.68;24.93;101965.05;102505;279;114264;-54
2023/05/08 09:18:46;;;;;;;;;;;;;;;23.25;25.48;101958.20;102455;279;93836;-54
2023/05/08 09:21:25;;;;;;;;;;;;;;;23.06;26.00;101956.80;102470;279;97251;-54
2023/05/08 09:23:59;;;;;;;;;;;;;;;22.21;26.32;101960.46;102428;279;119788;-55
2023/05/08 09:26:34;;;;;;;;;;;;;;;21.17;26.66;101958.91;102511;279;105297;-55
2023/05/08 09:29:18;;;;;;;;;;;;;;;20.56;27.18;101961.04;102459;279;114718;-55
2023/05/08 09:31:53;;;;;;;;;;;;;;;20.48;26.44;101960.67;102485;279;94703;-56
2023/05/08 09:34:32;;;;;;;;;;;;;;;19.97;26.74;101961.56;102521;279;97308;-55
2023/05/08 09:37:15;;;;;;;;;;;;;;;19.52;27.37;101963.60;102485;279;121587;-57
2023/05/08 09:39:54;;;;;;;;;;;;;;;19.30;27.57;101958.62;102518;279;105213;-57
2023/05/08 09:42:40;;;;;;;;;;;;;;;19.66;28.45;101950.54;102472;279;114171;-55
2023/05/08 09:45:28;;;;;;;;;;;;;;;19.98;27.65;101947.17;102495;279;93173;-54
2023/05/08 09:48:01;;;;;;;;;;;;;;;19.96;27.67;101948.73;102485;279;97240;-55
2023/05/08 09:50:35;;;;;;;;;;;;;;;20.04;28.59;101945.44;102516;279;121605;-54
2023/05/08 09:53:12;;;;;;;;;;;;;;;20.11;27.83;101941.70;102509;279;105006;-54
2023/05/08 09:55:49;;;;;;;;;;;;;;;19.98;27.65;101943.38;102479;279;113714;-54
2023/05/08 09:58:23;;;;;;;;;;;;;;;19.93;27.71;101945.33;102498;279;94028;-56
2023/05/08 10:00:59;;;;;;;;;;;;;;;20.20;27.88;101942.95;102504;279;96869;-55
2023/05/08 10:06:36;;;;;;;;;;;;;;;19.89;28.55;101928.70;100409;307;617894;-55
2023/05/08 10:09:16;;;;;;;;;;;;;;;19.76;28.50;101935.52;101655;289;95041;-55
2023/05/08 10:11:54;;;;;;;;;;;;;;;19.54;28.53;101926.61;101872;286;97383;-56
2023/05/08 10:14:28;;;;;;;;;;;;;;;19.27;28.50;101929.77;101895;286;114978;-57
2023/05/08 10:17:06;;;;;;;;;;;;;;;19.12;29.25;101927.14;101845;286;105319;-57
2023/05/08 10:19:45;;;;;;;;;;;;;;;19.39;29.14;101922.14;101338;285;619097;-56
2023/05/08 10:22:23;;;;;;;;;;;;;;;19.45;28.68;101923.73;101868;285;94158;-56
2023/05/08 10:25:01;;;;;;;;;;;;;;;19.25;28.56;101918.76;101942;285;97324;-56
2023/05/08 10:27:49;;;;;;;;;;;;;;;19.46;28.87;101912.56;101942;285;117768;-56
2023/05/08 10:30:26;;;;;;;;;;;;;;;19.68;28.79;101909.36;101934;272;105953;-57
2023/05/08 10:33:03;;;;;;;;;;;;;;;19.24;28.70;101912.31;101908;285;113886;-54
2023/05/08 10:35:39;;;;;;;;;;;;;;;19.22;28.11;101914.92;101903;285;94280;-55
2023/05/08 10:38:15;;;;;;;;;;;;;;;18.71;27.86;101921.05;101906;285;98018;-57
2023/05/08 10:40:52;;;;;;;;;;;;;;;18.29;28.36;101920.45;101922;285;118085;-55
2023/05/08 10:43:24;;;;;;;;;;;;;;;17.90;28.70;101921.80;102294;280;105184;-55
2023/05/08 10:46:01;;;;;;;;;;;;;;;17.67;29.22;101917.75;102290;280;114354;-54
2023/05/08 10:48:39;;;;;;;;;;;;;;;18.03;29.47;101918.26;102275;280;94788;-55
2023/05/08 10:51:15;;;;;;;;;;;;;;;18.18;29.22;101917.52;102304;281;97855;-53
2023/05/08 10:53:51;;;;;;;;;;;;;;;17.97;29.62;101916.58;102300;280;118764;-54
2023/05/08 10:56:30;;;;;;;;;;;;;;;17.79;29.66;101913.55;102306;280;104272;-55
2023/05/08 10:59:05;;;;;;;;;;;;;;;17.32;29.59;101914.27;102263;281;115390;-54
2023/05/08 11:01:39;;;;;;;;;;;;;;;16.79;29.83;101916.14;102293;280;92400;-56
2023/05/08 11:04:30;;;;;;;;;;;;;;;16.64;30.03;101912.61;102299;280;98137;-56
2023/05/08 11:07:07;;;;;;;;;;;;;;;16.47;30.18;101914.43;102284;280;118309;-54
2023/05/08 11:09:51;;;;;;;;;;;;;;;16.58;30.41;101905.35;102283;281;105481;-53
2023/05/08 11:12:26;;;;;;;;;;;;;;;16.62;30.34;101907.33;102281;280;114764;-54
2023/05/08 11:15:01;;;;;;;;;;;;;;;16.41;30.46;101905.24;102272;280;93230;-56
2023/05/08 11:17:36;;;;;;;;;;;;;;;16.19;30.78;101909.14;102259;281;96250;-53
2023/05/08 11:20:11;;;;;;;;;;;;;;;16.26;30.87;101898.63;102242;281;118658;-54
2023/05/08 11:22:48;;;;;;;;;;;;;;;16.32;30.66;101898.08;102209;281;105253;-53
2023/05/08 11:25:41;;;;;;;;;;;;;;;16.47;30.41;101892.60;102208;281;113654;-52
2023/05/08 11:28:18;;;;;;;;;;;;;;;16.67;30.35;101881.52;102216;281;93328;-54
2023/05/08 11:30:55;;;;;;;;;;;;;;;16.68;30.31;101887.73;102279;281;97030;-53
2023/05/08 11:33:36;;;;;;;;;;;;;;;16.81;30.04;101884.33;102229;281;116542;-54
2023/05/08 11:36:15;;;;;;;;;;;;;;;16.98;30.05;101877.88;102220;281;105584;-56
2023/05/08 11:39:08;;;;;;;;;;;;;;;17.02;30.00;101876.73;102230;280;112274;-56
2023/05/08 11:41:42;;;;;;;;;;;;;;;17.18;30.13;101871.08;102253;280;93927;-53
2023/05/08 11:44:20;;;;;;;;;;;;;;;17.39;29.86;101875.80;102203;281;98215;-54
2023/05/08 11:46:55;;;;;;;;;;;;;;;17.37;29.64;101870.28;102240;281;117074;-56
2023/05/08 11:49:33;;;;;;;;;;;;;;;17.32;29.68;101873.89;102281;281;105527;-56
2023/05/08 11:52:08;;;;;;;;;;;;;;;17.38;29.70;101873.27;102384;280;114048;-55
2023/05/08 11:54:42;;;;;;;;;;;;;;;17.14;29.65;101879.48;102383;280;93650;-53
2023/05/08 11:57:17;;;;;;;;;;;;;;;16.76;29.93;101876.88;102381;280;97916;-53
2023/05/08 11:59:57;;;;;;;;;;;;;;;16.64;29.92;101868.68;102418;280;118350;-54
2023/05/08 12:02:42;;;;;;;;;;;;;;;16.85;30.17;101875.72;102436;269;105266;-54
2023/05/08 12:05:28;;;;;;;;;;;;;;;16.88;30.09;101872.93;102341;280;114381;-53
2023/05/08 12:08:05;;;;;;;;;;;;;;;16.81;29.92;101870.60;102361;280;94797;-55
2023/05/08 12:10:51;;;;;;;;;;;;;;;16.90;29.86;101867.49;102392;280;96974;-54
2023/05/08 12:13:26;;;;;;;;;;;;;;;16.64;29.73;101868.77;102403;280;118532;-55
2023/05/08 12:16:04;;;;;;;;;;;;;;;16.52;30.10;101870.63;102364;280;105120;-55
2023/05/08 12:18:38;;;;;;;;;;;;;;;16.69;30.09;101860.02;102402;280;114355;-55
2023/05/08 12:21:16;;;;;;;;;;;;;;;16.77;29.92;101856.94;102370;280;94270;-54
2023/05/08 12:23:52;;;;;;;;;;;;;;;16.84;29.65;101855.51;102362;280;98210;-53
2023/05/08 12:26:27;;;;;;;;;;;;;;;16.96;29.83;101853.23;102382;280;118386;-54
2023/05/08 12:29:01;;;;;;;;;;;;;;;16.98;30.00;101853.35;102381;280;105100;-54
2023/05/08 12:31:37;;;;;;;;;;;;;;;16.88;30.07;101854.41;102344;280;114242;-54
2023/05/08 12:34:12;;;;;;;;;;;;;;;16.85;30.08;101853.30;102202;282;93103;-54
2023/05/08 12:36:45;;;;;;;;;;;;;;;16.81;29.66;101854.02;102398;280;97106;-54
2023/05/08 12:39:19;;;;;;;;;;;;;;;16.86;29.65;101848.98;102375;280;117674;-55
2023/05/08 12:41:55;;;;;;;;;;;;;;;16.99;29.61;101847.00;102385;280;105394;-54
2023/05/08 12:44:37;;;;;;;;;;;;;;;17.03;29.46;101839.87;102369;280;114496;-54
2023/05/08 12:47:11;;;;;;;;;;;;;;;17.09;29.49;101838.60;102346;269;95401;-56
2023/05/08 12:49:47;;;;;;;;;;;;;;;17.06;29.66;101838.16;102394;280;98226;-56
2023/05/08 12:52:25;;;;;;;;;;;;;;;17.04;29.72;101834.29;102409;280;118885;-53
2023/05/08 12:54:58;;;;;;;;;;;;;;;17.04;29.93;101836.17;102360;280;105898;-54
2023/05/08 12:57:33;;;;;;;;;;;;;;;17.08;29.81;101832.50;102384;280;114389;-54
2023/05/08 13:00:10;;;;;;;;;;;;;;;17.22;29.94;101829.52;102359;280;93680;-55
2023/05/08 13:02:51;;;;;;;;;;;;;;;17.24;30.04;101823.39;102394;280;97488;-54
2023/05/08 13:05:28;;;;;;;;;;;;;;;17.00;29.92;101828.48;102426;280;117561;-54
2023/05/08 13:08:08;;;;;;;;;;;;;;;16.64;30.18;101824.77;102358;280;105126;-56
2023/05/08 13:10:50;;;;;;;;;;;;;;;16.36;30.14;101830.66;102370;280;114502;-54
2023/05/08 13:13:24;;;;;;;;;;;;;;;16.10;30.22;101827.27;102358;280;93277;-54
2023/05/08 13:16:02;;;;;;;;;;;;;;;15.96;30.44;101823.77;102373;280;97851;-57
2023/05/08 13:18:39;;;;;;;;;;;;;;;16.09;30.74;101820.27;102380;280;118870;-57
2023/05/08 13:21:12;;;;;;;;;;;;;;;16.34;30.51;101817.25;102340;280;104439;-54
2023/05/08 13:23:48;;;;;;;;;;;;;;;16.45;30.43;101812.72;102312;280;112330;-54
2023/05/08 13:26:24;;;;;;;;;;;;;;;16.57;30.53;101807.49;102351;280;93419;-55
2023/05/08 13:29:00;;;;;;;;;;;;;;;16.78;30.28;101808.25;102363;280;97750;-54